sensor_id;sensor_type;location;lat;lon;timestamp;P1;durP1;ratioP1;P2;durP2;ratioP2
7158;SDS011;63175;52.374;13.132;2024-02-21T00:01:35;13.27;;;4.30;;
7158;SDS011;63175;52.374;13.132;2024-02-21T00:04:02;16.50;;;4.20;;
7158;SDS011;63175;52.374;13.132;2024-02-21T00:06:30;8.60;;;3.50;;
7158;SDS011;63175;52.374;13.132;2024-02-21T00:08:57;16.10;;;4.60;;
7158;SDS011;63175;52.374;13.132;2024-02-21T00:11:24;17.50;;;4.67;;
7158;SDS011;63175;52.374;13.132;2024-02-21T00:13:51;17.77;;;4.30;;
7158;SDS011;63175;52.374;13.132;2024-02-21T00:16:19;9.70;;;4.10;;
7158;SDS011;63175;52.374;13.132;2024-02-21T00:18:46;9.83;;;4.27;;
7158;SDS011;63175;52.374;13.132;2024-02-21T00:21:13;11.60;;;3.90;;
7158;SDS011;63175;52.374;13.132;2024-02-21T00:23:43;10.07;;;3.60;;
7158;SDS011;63175;52.374;13.132;2024-02-21T00:26:10;7.20;;;3.20;;
7158;SDS011;63175;52.374;13.132;2024-02-21T00:28:37;6.40;;;3.40;;
7158;SDS011;63175;52.374;13.132;2024-02-21T00:31:04;13.47;;;4.03;;
7158;SDS011;63175;52.374;13.132;2024-02-21T00:33:32;11.07;;;4.60;;
7158;SDS011;63175;52.374;13.132;2024-02-21T00:35:59;9.57;;;3.97;;
7158;SDS011;63175;52.374;13.132;2024-02-21T00:38:26;14.43;;;4.33;;
7158;SDS011;63175;52.374;13.132;2024-02-21T00:40:53;10.80;;;3.47;;
7158;SDS011;63175;52.374;13.132;2024-02-21T00:43:20;14.50;;;4.70;;
7158;SDS011;63175;52.374;13.132;2024-02-21T00:45:48;11.93;;;3.93;;
7158;SDS011;63175;52.374;13.132;2024-02-21T00:48:15;8.13;;;3.30;;
7158;SDS011;63175;52.374;13.132;2024-02-21T00:50:43;12.53;;;4.07;;
7158;SDS011;63175;52.374;13.132;2024-02-21T00:53:09;10.07;;;3.90;;
7158;SDS011;63175;52.374;13.132;2024-02-21T00:55:36;11.60;;;3.90;;
7158;SDS011;63175;52.374;13.132;2024-02-21T00:58:03;10.40;;;4.10;;
7158;SDS011;63175;52.374;13.132;2024-02-21T01:00:30;14.73;;;4.50;;
7158;SDS011;63175;52.374;13.132;2024-02-21T01:02:57;8.37;;;3.43;;
7158;SDS011;63175;52.374;13.132;2024-02-21T01:05:24;9.93;;;3.57;;
7158;SDS011;63175;52.374;13.132;2024-02-21T01:07:53;10.43;;;3.20;;
7158;SDS011;63175;52.374;13.132;2024-02-21T01:10:20;10.50;;;3.20;;
7158;SDS011;63175;52.374;13.132;2024-02-21T01:12:47;14.43;;;4.40;;
7158;SDS011;63175;52.374;13.132;2024-02-21T01:15:14;7.60;;;3.27;;
7158;SDS011;63175;52.374;13.132;2024-02-21T01:17:41;14.83;;;3.70;;
7158;SDS011;63175;52.374;13.132;2024-02-21T01:20:08;12.20;;;4.00;;
7158;SDS011;63175;52.374;13.132;2024-02-21T01:22:36;11.43;;;3.80;;
7158;SDS011;63175;52.374;13.132;2024-02-21T01:25:04;8.77;;;3.23;;
7158;SDS011;63175;52.374;13.132;2024-02-21T01:27:32;11.30;;;3.67;;
7158;SDS011;63175;52.374;13.132;2024-02-21T01:29:58;11.27;;;4.50;;
7158;SDS011;63175;52.374;13.132;2024-02-21T01:32:25;8.67;;;3.20;;
7158;SDS011;63175;52.374;13.132;2024-02-21T01:34:52;8.97;;;3.53;;
7158;SDS011;63175;52.374;13.132;2024-02-21T01:37:19;11.30;;;4.00;;
7158;SDS011;63175;52.374;13.132;2024-02-21T01:39:46;11.80;;;4.50;;
7158;SDS011;63175;52.374;13.132;2024-02-21T01:42:15;8.20;;;3.70;;
7158;SDS011;63175;52.374;13.132;2024-02-21T01:44:42;12.07;;;3.10;;
7158;SDS011;63175;52.374;13.132;2024-02-21T01:47:10;10.87;;;3.53;;
7158;SDS011;63175;52.374;13.132;2024-02-21T01:49:38;7.87;;;3.17;;
7158;SDS011;63175;52.374;13.132;2024-02-21T01:52:06;7.30;;;3.30;;
7158;SDS011;63175;52.374;13.132;2024-02-21T01:54:34;11.37;;;3.00;;
7158;SDS011;63175;52.374;13.132;2024-02-21T01:57:01;8.20;;;3.67;;
7158;SDS011;63175;52.374;13.132;2024-02-21T01:59:29;6.87;;;3.00;;
7158;SDS011;63175;52.374;13.132;2024-02-21T02:01:56;11.93;;;3.53;;
7158;SDS011;63175;52.374;13.132;2024-02-21T02:04:24;20.00;;;3.70;;
7158;SDS011;63175;52.374;13.132;2024-02-21T02:06:52;6.23;;;3.20;;
7158;SDS011;63175;52.374;13.132;2024-02-21T02:09:20;10.17;;;3.80;;
7158;SDS011;63175;52.374;13.132;2024-02-21T02:11:47;14.90;;;4.07;;
7158;SDS011;63175;52.374;13.132;2024-02-21T02:14:14;8.17;;;3.13;;
7158;SDS011;63175;52.374;13.132;2024-02-21T02:16:42;13.53;;;3.40;;
7158;SDS011;63175;52.374;13.132;2024-02-21T02:19:12;6.53;;;3.40;;
7158;SDS011;63175;52.374;13.132;2024-02-21T02:21:42;10.93;;;3.30;;
7158;SDS011;63175;52.374;13.132;2024-02-21T02:24:13;9.20;;;3.47;;
7158;SDS011;63175;52.374;13.132;2024-02-21T02:26:40;6.73;;;3.07;;
7158;SDS011;63175;52.374;13.132;2024-02-21T02:29:07;7.63;;;3.17;;
7158;SDS011;63175;52.374;13.132;2024-02-21T02:31:34;9.20;;;3.50;;
7158;SDS011;63175;52.374;13.132;2024-02-21T02:34:02;11.47;;;3.90;;
7158;SDS011;63175;52.374;13.132;2024-02-21T02:36:29;17.83;;;4.37;;
7158;SDS011;63175;52.374;13.132;2024-02-21T02:38:56;10.30;;;4.47;;
7158;SDS011;63175;52.374;13.132;2024-02-21T02:41:24;10.97;;;3.37;;
7158;SDS011;63175;52.374;13.132;2024-02-21T02:43:51;10.83;;;3.40;;
7158;SDS011;63175;52.374;13.132;2024-02-21T02:46:18;9.03;;;3.60;;
7158;SDS011;63175;52.374;13.132;2024-02-21T02:48:45;5.70;;;2.80;;
7158;SDS011;63175;52.374;13.132;2024-02-21T02:51:12;8.20;;;4.13;;
7158;SDS011;63175;52.374;13.132;2024-02-21T02:53:39;15.57;;;3.97;;
7158;SDS011;63175;52.374;13.132;2024-02-21T02:56:05;9.43;;;3.87;;
7158;SDS011;63175;52.374;13.132;2024-02-21T02:58:34;12.70;;;4.07;;
7158;SDS011;63175;52.374;13.132;2024-02-21T03:01:00;6.70;;;3.60;;
7158;SDS011;63175;52.374;13.132;2024-02-21T03:03:29;12.57;;;3.73;;
7158;SDS011;63175;52.374;13.132;2024-02-21T03:05:56;9.60;;;3.60;;
7158;SDS011;63175;52.374;13.132;2024-02-21T03:08:22;8.60;;;3.60;;
7158;SDS011;63175;52.374;13.132;2024-02-21T03:10:49;11.30;;;3.80;;
7158;SDS011;63175;52.374;13.132;2024-02-21T03:13:16;12.20;;;4.27;;
7158;SDS011;63175;52.374;13.132;2024-02-21T03:15:44;6.90;;;3.23;;
7158;SDS011;63175;52.374;13.132;2024-02-21T03:18:11;16.57;;;3.70;;
7158;SDS011;63175;52.374;13.132;2024-02-21T03:20:38;9.27;;;4.23;;
7158;SDS011;63175;52.374;13.132;2024-02-21T03:23:05;11.00;;;3.50;;
7158;SDS011;63175;52.374;13.132;2024-02-21T03:25:32;16.60;;;4.17;;
7158;SDS011;63175;52.374;13.132;2024-02-21T03:27:58;8.57;;;3.70;;
7158;SDS011;63175;52.374;13.132;2024-02-21T03:30:26;7.53;;;3.27;;
7158;SDS011;63175;52.374;13.132;2024-02-21T03:32:55;11.03;;;3.83;;
7158;SDS011;63175;52.374;13.132;2024-02-21T03:35:21;13.63;;;4.33;;
7158;SDS011;63175;52.374;13.132;2024-02-21T03:37:51;4.30;;;3.13;;
7158;SDS011;63175;52.374;13.132;2024-02-21T03:40:18;10.40;;;4.07;;
7158;SDS011;63175;52.374;13.132;2024-02-21T03:42:45;11.83;;;4.17;;
7158;SDS011;63175;52.374;13.132;2024-02-21T03:45:12;8.80;;;3.60;;
7158;SDS011;63175;52.374;13.132;2024-02-21T03:47:38;9.87;;;4.20;;
7158;SDS011;63175;52.374;13.132;2024-02-21T03:50:07;8.63;;;3.77;;
7158;SDS011;63175;52.374;13.132;2024-02-21T03:52:34;8.93;;;3.93;;
7158;SDS011;63175;52.374;13.132;2024-02-21T03:55:01;13.03;;;4.70;;
7158;SDS011;63175;52.374;13.132;2024-02-21T03:57:28;12.40;;;4.37;;
7158;SDS011;63175;52.374;13.132;2024-02-21T03:59:55;14.70;;;4.17;;
7158;SDS011;63175;52.374;13.132;2024-02-21T04:02:22;7.40;;;4.17;;
7158;SDS011;63175;52.374;13.132;2024-02-21T04:04:49;12.47;;;4.97;;
7158;SDS011;63175;52.374;13.132;2024-02-21T04:07:17;10.20;;;4.77;;
7158;SDS011;63175;52.374;13.132;2024-02-21T04:09:44;13.33;;;4.20;;
7158;SDS011;63175;52.374;13.132;2024-02-21T04:12:11;17.53;;;5.70;;
7158;SDS011;63175;52.374;13.132;2024-02-21T04:14:37;12.53;;;5.10;;
7158;SDS011;63175;52.374;13.132;2024-02-21T04:17:04;21.03;;;5.53;;
7158;SDS011;63175;52.374;13.132;2024-02-21T04:19:32;13.70;;;4.30;;
7158;SDS011;63175;52.374;13.132;2024-02-21T04:21:59;16.70;;;4.40;;
7158;SDS011;63175;52.374;13.132;2024-02-21T04:24:27;10.90;;;5.17;;
7158;SDS011;63175;52.374;13.132;2024-02-21T04:26:54;13.23;;;4.60;;
7158;SDS011;63175;52.374;13.132;2024-02-21T04:29:21;15.90;;;4.93;;
7158;SDS011;63175;52.374;13.132;2024-02-21T04:31:48;23.33;;;5.70;;
7158;SDS011;63175;52.374;13.132;2024-02-21T04:34:15;18.73;;;5.20;;
7158;SDS011;63175;52.374;13.132;2024-02-21T04:36:42;11.27;;;4.10;;
7158;SDS011;63175;52.374;13.132;2024-02-21T04:39:09;9.87;;;4.10;;
7158;SDS011;63175;52.374;13.132;2024-02-21T04:41:37;13.80;;;4.80;;
7158;SDS011;63175;52.374;13.132;2024-02-21T04:44:04;12.87;;;5.03;;
7158;SDS011;63175;52.374;13.132;2024-02-21T04:46:31;16.50;;;4.67;;
7158;SDS011;63175;52.374;13.132;2024-02-21T04:48:58;14.00;;;5.90;;
7158;SDS011;63175;52.374;13.132;2024-02-21T04:51:25;16.27;;;4.57;;
7158;SDS011;63175;52.374;13.132;2024-02-21T04:53:51;11.10;;;4.70;;
7158;SDS011;63175;52.374;13.132;2024-02-21T04:56:19;12.87;;;4.50;;
7158;SDS011;63175;52.374;13.132;2024-02-21T04:58:47;14.27;;;5.37;;
7158;SDS011;63175;52.374;13.132;2024-02-21T05:01:14;13.27;;;5.40;;
7158;SDS011;63175;52.374;13.132;2024-02-21T05:03:41;15.10;;;5.10;;
7158;SDS011;63175;52.374;13.132;2024-02-21T05:06:07;9.33;;;4.57;;
7158;SDS011;63175;52.374;13.132;2024-02-21T05:08:34;12.90;;;5.50;;
7158;SDS011;63175;52.374;13.132;2024-02-21T05:11:01;11.90;;;4.50;;
7158;SDS011;63175;52.374;13.132;2024-02-21T05:13:28;6.63;;;4.00;;
7158;SDS011;63175;52.374;13.132;2024-02-21T05:15:56;18.63;;;5.57;;
7158;SDS011;63175;52.374;13.132;2024-02-21T05:18:26;12.30;;;4.83;;
7158;SDS011;63175;52.374;13.132;2024-02-21T05:20:53;10.50;;;4.97;;
7158;SDS011;63175;52.374;13.132;2024-02-21T05:23:20;11.83;;;4.97;;
7158;SDS011;63175;52.374;13.132;2024-02-21T05:25:47;6.83;;;4.40;;
7158;SDS011;63175;52.374;13.132;2024-02-21T05:28:13;9.50;;;4.30;;
7158;SDS011;63175;52.374;13.132;2024-02-21T05:30:40;12.60;;;4.60;;
7158;SDS011;63175;52.374;13.132;2024-02-21T05:33:09;7.17;;;4.20;;
7158;SDS011;63175;52.374;13.132;2024-02-21T05:35:36;9.97;;;5.43;;
7158;SDS011;63175;52.374;13.132;2024-02-21T05:38:03;8.50;;;4.80;;
7158;SDS011;63175;52.374;13.132;2024-02-21T05:40:36;15.30;;;5.97;;
7158;SDS011;63175;52.374;13.132;2024-02-21T05:43:03;9.13;;;4.70;;
7158;SDS011;63175;52.374;13.132;2024-02-21T05:45:30;8.80;;;4.77;;
7158;SDS011;63175;52.374;13.132;2024-02-21T05:47:56;11.60;;;4.50;;
7158;SDS011;63175;52.374;13.132;2024-02-21T05:50:25;8.70;;;4.30;;
7158;SDS011;63175;52.374;13.132;2024-02-21T05:52:53;14.87;;;5.27;;
7158;SDS011;63175;52.374;13.132;2024-02-21T05:55:20;6.30;;;4.67;;
7158;SDS011;63175;52.374;13.132;2024-02-21T05:57:47;9.70;;;5.60;;
7158;SDS011;63175;52.374;13.132;2024-02-21T06:00:14;8.33;;;4.67;;
7158;SDS011;63175;52.374;13.132;2024-02-21T06:02:42;13.30;;;5.17;;
7158;SDS011;63175;52.374;13.132;2024-02-21T06:05:08;12.20;;;7.40;;
7158;SDS011;63175;52.374;13.132;2024-02-21T06:07:37;11.23;;;6.03;;
7158;SDS011;63175;52.374;13.132;2024-02-21T06:10:06;9.23;;;4.70;;
7158;SDS011;63175;52.374;13.132;2024-02-21T06:12:33;8.80;;;4.60;;
7158;SDS011;63175;52.374;13.132;2024-02-21T06:15:00;13.83;;;5.87;;
7158;SDS011;63175;52.374;13.132;2024-02-21T06:17:28;11.30;;;5.60;;
7158;SDS011;63175;52.374;13.132;2024-02-21T06:19:54;18.30;;;6.13;;
7158;SDS011;63175;52.374;13.132;2024-02-21T06:22:21;15.50;;;6.00;;
7158;SDS011;63175;52.374;13.132;2024-02-21T06:24:49;8.80;;;5.37;;
7158;SDS011;63175;52.374;13.132;2024-02-21T06:27:16;6.63;;;4.87;;
7158;SDS011;63175;52.374;13.132;2024-02-21T06:29:43;19.63;;;6.47;;
7158;SDS011;63175;52.374;13.132;2024-02-21T06:32:10;9.03;;;5.03;;
7158;SDS011;63175;52.374;13.132;2024-02-21T06:34:37;12.53;;;5.80;;
7158;SDS011;63175;52.374;13.132;2024-02-21T06:37:04;11.93;;;5.67;;
7158;SDS011;63175;52.374;13.132;2024-02-21T06:39:31;16.83;;;6.83;;
7158;SDS011;63175;52.374;13.132;2024-02-21T06:41:59;11.40;;;5.87;;
7158;SDS011;63175;52.374;13.132;2024-02-21T06:44:26;6.87;;;4.67;;
7158;SDS011;63175;52.374;13.132;2024-02-21T06:46:53;9.83;;;5.60;;
7158;SDS011;63175;52.374;13.132;2024-02-21T06:49:20;15.53;;;5.87;;
7158;SDS011;63175;52.374;13.132;2024-02-21T06:51:47;10.80;;;5.67;;
7158;SDS011;63175;52.374;13.132;2024-02-21T06:54:14;10.83;;;5.40;;
7158;SDS011;63175;52.374;13.132;2024-02-21T06:56:40;9.80;;;5.53;;
7158;SDS011;63175;52.374;13.132;2024-02-21T06:59:09;17.00;;;7.63;;
7158;SDS011;63175;52.374;13.132;2024-02-21T07:01:36;12.80;;;5.87;;
7158;SDS011;63175;52.374;13.132;2024-02-21T07:04:03;10.13;;;5.00;;
7158;SDS011;63175;52.374;13.132;2024-02-21T07:06:30;16.53;;;5.23;;
7158;SDS011;63175;52.374;13.132;2024-02-21T07:08:57;9.30;;;4.63;;
7158;SDS011;63175;52.374;13.132;2024-02-21T07:11:24;9.37;;;5.00;;
7158;SDS011;63175;52.374;13.132;2024-02-21T07:13:50;10.57;;;5.30;;
7158;SDS011;63175;52.374;13.132;2024-02-21T07:16:19;16.13;;;5.53;;
7158;SDS011;63175;52.374;13.132;2024-02-21T07:18:46;13.00;;;5.50;;
7158;SDS011;63175;52.374;13.132;2024-02-21T07:21:13;10.57;;;5.07;;
7158;SDS011;63175;52.374;13.132;2024-02-21T07:23:40;15.53;;;4.90;;
7158;SDS011;63175;52.374;13.132;2024-02-21T07:26:08;7.23;;;5.50;;
7158;SDS011;63175;52.374;13.132;2024-02-21T07:28:35;10.17;;;4.50;;
7158;SDS011;63175;52.374;13.132;2024-02-21T07:31:02;10.17;;;5.10;;
7158;SDS011;63175;52.374;13.132;2024-02-21T07:33:30;11.20;;;5.60;;
7158;SDS011;63175;52.374;13.132;2024-02-21T07:35:57;14.07;;;5.53;;
7158;SDS011;63175;52.374;13.132;2024-02-21T07:38:24;12.30;;;5.30;;
7158;SDS011;63175;52.374;13.132;2024-02-21T07:40:51;8.67;;;4.40;;
7158;SDS011;63175;52.374;13.132;2024-02-21T07:43:18;9.37;;;5.10;;
7158;SDS011;63175;52.374;13.132;2024-02-21T07:45:47;15.13;;;4.80;;
7158;SDS011;63175;52.374;13.132;2024-02-21T07:48:14;8.20;;;5.10;;
7158;SDS011;63175;52.374;13.132;2024-02-21T07:50:42;6.00;;;4.63;;
7158;SDS011;63175;52.374;13.132;2024-02-21T07:53:09;11.13;;;5.53;;
7158;SDS011;63175;52.374;13.132;2024-02-21T07:55:36;12.40;;;5.27;;
7158;SDS011;63175;52.374;13.132;2024-02-21T07:58:02;14.00;;;5.53;;
7158;SDS011;63175;52.374;13.132;2024-02-21T08:00:29;12.30;;;6.03;;
7158;SDS011;63175;52.374;13.132;2024-02-21T08:02:56;11.33;;;6.50;;
7158;SDS011;63175;52.374;13.132;2024-02-21T08:05:23;14.13;;;6.57;;
7158;SDS011;63175;52.374;13.132;2024-02-21T08:07:51;10.47;;;5.30;;
7158;SDS011;63175;52.374;13.132;2024-02-21T08:10:18;9.93;;;5.60;;
7158;SDS011;63175;52.374;13.132;2024-02-21T08:12:45;11.57;;;6.00;;
7158;SDS011;63175;52.374;13.132;2024-02-21T08:15:12;8.17;;;4.93;;
7158;SDS011;63175;52.374;13.132;2024-02-21T08:17:39;13.20;;;6.67;;
7158;SDS011;63175;52.374;13.132;2024-02-21T08:20:06;12.10;;;4.97;;
7158;SDS011;63175;52.374;13.132;2024-02-21T08:22:33;13.80;;;6.00;;
7158;SDS011;63175;52.374;13.132;2024-02-21T08:25:04;14.60;;;5.77;;
7158;SDS011;63175;52.374;13.132;2024-02-21T08:27:32;13.53;;;6.10;;
7158;SDS011;63175;52.374;13.132;2024-02-21T08:29:59;11.77;;;5.80;;
7158;SDS011;63175;52.374;13.132;2024-02-21T08:32:26;14.67;;;5.50;;
7158;SDS011;63175;52.374;13.132;2024-02-21T08:34:54;9.93;;;5.67;;
7158;SDS011;63175;52.374;13.132;2024-02-21T08:37:21;10.73;;;6.97;;
7158;SDS011;63175;52.374;13.132;2024-02-21T08:39:48;8.10;;;6.27;;
7158;SDS011;63175;52.374;13.132;2024-02-21T08:42:16;12.33;;;5.57;;
7158;SDS011;63175;52.374;13.132;2024-02-21T08:44:44;8.70;;;6.30;;
7158;SDS011;63175;52.374;13.132;2024-02-21T08:47:11;8.53;;;5.47;;
7158;SDS011;63175;52.374;13.132;2024-02-21T08:49:37;11.37;;;6.10;;
7158;SDS011;63175;52.374;13.132;2024-02-21T08:52:04;11.33;;;5.27;;
7158;SDS011;63175;52.374;13.132;2024-02-21T08:54:31;16.23;;;6.40;;
7158;SDS011;63175;52.374;13.132;2024-02-21T08:56:58;10.43;;;6.10;;
7158;SDS011;63175;52.374;13.132;2024-02-21T08:59:27;11.10;;;5.93;;
7158;SDS011;63175;52.374;13.132;2024-02-21T09:01:54;16.53;;;6.63;;
7158;SDS011;63175;52.374;13.132;2024-02-21T09:04:21;11.80;;;6.50;;
7158;SDS011;63175;52.374;13.132;2024-02-21T09:06:48;16.00;;;7.83;;
7158;SDS011;63175;52.374;13.132;2024-02-21T09:09:14;11.10;;;7.50;;
7158;SDS011;63175;52.374;13.132;2024-02-21T09:11:42;11.57;;;6.77;;
7158;SDS011;63175;52.374;13.132;2024-02-21T09:14:09;10.90;;;6.37;;
7158;SDS011;63175;52.374;13.132;2024-02-21T09:16:37;14.30;;;5.60;;
7158;SDS011;63175;52.374;13.132;2024-02-21T09:19:04;13.50;;;6.27;;
7158;SDS011;63175;52.374;13.132;2024-02-21T09:21:32;14.00;;;6.10;;
7158;SDS011;63175;52.374;13.132;2024-02-21T09:23:59;9.40;;;5.80;;
7158;SDS011;63175;52.374;13.132;2024-02-21T09:26:26;12.00;;;6.60;;
7158;SDS011;63175;52.374;13.132;2024-02-21T09:28:53;10.77;;;6.37;;
7158;SDS011;63175;52.374;13.132;2024-02-21T09:31:20;14.00;;;6.57;;
7158;SDS011;63175;52.374;13.132;2024-02-21T09:33:48;9.60;;;5.90;;
7158;SDS011;63175;52.374;13.132;2024-02-21T09:36:14;13.00;;;7.17;;
7158;SDS011;63175;52.374;13.132;2024-02-21T09:38:41;13.03;;;6.97;;
7158;SDS011;63175;52.374;13.132;2024-02-21T09:41:11;13.90;;;6.90;;
7158;SDS011;63175;52.374;13.132;2024-02-21T09:43:42;8.37;;;5.77;;
7158;SDS011;63175;52.374;13.132;2024-02-21T09:46:12;7.57;;;6.20;;
7158;SDS011;63175;52.374;13.132;2024-02-21T09:48:44;12.53;;;6.50;;
7158;SDS011;63175;52.374;13.132;2024-02-21T09:51:24;17.23;;;7.40;;
7158;SDS011;63175;52.374;13.132;2024-02-21T09:53:52;11.00;;;7.00;;
7158;SDS011;63175;52.374;13.132;2024-02-21T09:56:20;12.30;;;6.10;;
7158;SDS011;63175;52.374;13.132;2024-02-21T09:58:47;9.60;;;5.73;;
7158;SDS011;63175;52.374;13.132;2024-02-21T10:01:14;12.43;;;5.63;;
7158;SDS011;63175;52.374;13.132;2024-02-21T10:03:41;12.10;;;6.33;;
7158;SDS011;63175;52.374;13.132;2024-02-21T10:06:10;12.43;;;6.40;;
7158;SDS011;63175;52.374;13.132;2024-02-21T10:08:37;13.03;;;6.50;;
7158;SDS011;63175;52.374;13.132;2024-02-21T10:11:04;16.40;;;6.50;;
7158;SDS011;63175;52.374;13.132;2024-02-21T10:13:30;14.47;;;6.90;;
7158;SDS011;63175;52.374;13.132;2024-02-21T10:16:01;11.60;;;6.30;;
7158;SDS011;63175;52.374;13.132;2024-02-21T10:18:28;11.17;;;6.00;;
7158;SDS011;63175;52.374;13.132;2024-02-21T10:21:01;6.93;;;5.60;;
7158;SDS011;63175;52.374;13.132;2024-02-21T10:23:41;12.10;;;6.17;;
7158;SDS011;63175;52.374;13.132;2024-02-21T10:26:12;14.10;;;5.77;;
7158;SDS011;63175;52.374;13.132;2024-02-21T10:28:39;10.80;;;5.70;;
7158;SDS011;63175;52.374;13.132;2024-02-21T10:31:08;10.77;;;6.23;;
7158;SDS011;63175;52.374;13.132;2024-02-21T10:33:36;14.40;;;6.37;;
7158;SDS011;63175;52.374;13.132;2024-02-21T10:36:06;8.80;;;5.33;;
7158;SDS011;63175;52.374;13.132;2024-02-21T10:38:35;10.07;;;5.90;;
7158;SDS011;63175;52.374;13.132;2024-02-21T10:41:04;9.60;;;5.77;;
7158;SDS011;63175;52.374;13.132;2024-02-21T10:43:33;17.83;;;5.80;;
7158;SDS011;63175;52.374;13.132;2024-02-21T10:46:05;12.43;;;6.10;;
7158;SDS011;63175;52.374;13.132;2024-02-21T10:48:34;9.40;;;5.37;;
7158;SDS011;63175;52.374;13.132;2024-02-21T10:51:11;10.20;;;5.87;;
7158;SDS011;63175;52.374;13.132;2024-02-21T10:53:44;10.97;;;5.80;;
7158;SDS011;63175;52.374;13.132;2024-02-21T10:56:16;8.43;;;5.90;;
7158;SDS011;63175;52.374;13.132;2024-02-21T10:58:53;12.80;;;5.13;;
7158;SDS011;63175;52.374;13.132;2024-02-21T11:01:20;7.60;;;4.90;;
7158;SDS011;63175;52.374;13.132;2024-02-21T11:03:48;8.57;;;5.00;;
7158;SDS011;63175;52.374;13.132;2024-02-21T11:06:16;6.97;;;4.80;;
7158;SDS011;63175;52.374;13.132;2024-02-21T11:08:46;10.27;;;6.00;;
7158;SDS011;63175;52.374;13.132;2024-02-21T11:11:14;5.73;;;4.60;;
7158;SDS011;63175;52.374;13.132;2024-02-21T11:13:46;8.13;;;5.23;;
7158;SDS011;63175;52.374;13.132;2024-02-21T11:16:21;8.40;;;4.87;;
7158;SDS011;63175;52.374;13.132;2024-02-21T11:18:48;9.20;;;5.27;;
7158;SDS011;63175;52.374;13.132;2024-02-21T11:21:16;6.20;;;4.37;;
7158;SDS011;63175;52.374;13.132;2024-02-21T11:23:42;11.93;;;5.00;;
7158;SDS011;63175;52.374;13.132;2024-02-21T11:26:09;9.60;;;4.83;;
7158;SDS011;63175;52.374;13.132;2024-02-21T11:28:55;8.03;;;4.87;;
7158;SDS011;63175;52.374;13.132;2024-02-21T11:31:22;7.07;;;4.40;;
7158;SDS011;63175;52.374;13.132;2024-02-21T11:33:49;7.60;;;4.17;;
7158;SDS011;63175;52.374;13.132;2024-02-21T11:36:23;6.27;;;4.73;;
7158;SDS011;63175;52.374;13.132;2024-02-21T11:38:51;6.20;;;4.03;;
7158;SDS011;63175;52.374;13.132;2024-02-21T11:41:18;7.43;;;4.10;;
7158;SDS011;63175;52.374;13.132;2024-02-21T11:43:47;8.50;;;4.17;;
7158;SDS011;63175;52.374;13.132;2024-02-21T11:46:15;11.63;;;3.77;;
7158;SDS011;63175;52.374;13.132;2024-02-21T11:48:42;4.50;;;3.47;;
7158;SDS011;63175;52.374;13.132;2024-02-21T11:51:20;4.77;;;2.97;;
7158;SDS011;63175;52.374;13.132;2024-02-21T11:53:49;5.50;;;3.60;;
7158;SDS011;63175;52.374;13.132;2024-02-21T11:56:17;11.63;;;3.90;;
7158;SDS011;63175;52.374;13.132;2024-02-21T11:58:44;6.67;;;3.57;;
7158;SDS011;63175;52.374;13.132;2024-02-21T12:01:13;3.87;;;3.37;;
7158;SDS011;63175;52.374;13.132;2024-02-21T12:03:40;5.90;;;3.30;;
7158;SDS011;63175;52.374;13.132;2024-02-21T12:06:14;8.20;;;4.07;;
7158;SDS011;63175;52.374;13.132;2024-02-21T12:08:44;8.20;;;4.27;;
7158;SDS011;63175;52.374;13.132;2024-02-21T12:11:18;5.27;;;3.60;;
7158;SDS011;63175;52.374;13.132;2024-02-21T12:13:48;10.03;;;3.93;;
7158;SDS011;63175;52.374;13.132;2024-02-21T12:16:26;5.40;;;2.70;;
7158;SDS011;63175;52.374;13.132;2024-02-21T12:18:54;5.47;;;3.63;;
7158;SDS011;63175;52.374;13.132;2024-02-21T12:21:23;8.93;;;3.53;;
7158;SDS011;63175;52.374;13.132;2024-02-21T12:23:50;6.73;;;3.20;;
7158;SDS011;63175;52.374;13.132;2024-02-21T12:26:17;4.70;;;3.00;;
7158;SDS011;63175;52.374;13.132;2024-02-21T12:28:44;6.90;;;3.30;;
7158;SDS011;63175;52.374;13.132;2024-02-21T12:31:12;3.87;;;2.73;;
7158;SDS011;63175;52.374;13.132;2024-02-21T12:33:41;6.03;;;3.30;;
7158;SDS011;63175;52.374;13.132;2024-02-21T12:36:08;8.17;;;3.60;;
7158;SDS011;63175;52.374;13.132;2024-02-21T12:38:35;7.53;;;3.70;;
7158;SDS011;63175;52.374;13.132;2024-02-21T12:41:02;3.50;;;3.20;;
7158;SDS011;63175;52.374;13.132;2024-02-21T12:43:29;13.87;;;3.50;;
7158;SDS011;63175;52.374;13.132;2024-02-21T12:45:56;8.67;;;3.70;;
7158;SDS011;63175;52.374;13.132;2024-02-21T12:48:24;5.87;;;3.47;;
7158;SDS011;63175;52.374;13.132;2024-02-21T12:50:51;4.97;;;3.90;;
7158;SDS011;63175;52.374;13.132;2024-02-21T12:53:18;9.50;;;4.07;;
7158;SDS011;63175;52.374;13.132;2024-02-21T12:55:46;6.90;;;3.40;;
7158;SDS011;63175;52.374;13.132;2024-02-21T12:58:13;8.97;;;4.03;;
7158;SDS011;63175;52.374;13.132;2024-02-21T13:00:40;5.40;;;2.87;;
7158;SDS011;63175;52.374;13.132;2024-02-21T13:03:07;12.20;;;4.53;;
7158;SDS011;63175;52.374;13.132;2024-02-21T13:05:36;3.90;;;2.87;;
7158;SDS011;63175;52.374;13.132;2024-02-21T13:08:04;4.93;;;3.20;;
7158;SDS011;63175;52.374;13.132;2024-02-21T13:10:31;6.40;;;2.90;;
7158;SDS011;63175;52.374;13.132;2024-02-21T13:12:59;4.63;;;3.27;;
7158;SDS011;63175;52.374;13.132;2024-02-21T13:15:26;6.57;;;3.77;;
7158;SDS011;63175;52.374;13.132;2024-02-21T13:17:54;8.70;;;3.40;;
7158;SDS011;63175;52.374;13.132;2024-02-21T13:20:21;6.90;;;2.97;;
7158;SDS011;63175;52.374;13.132;2024-02-21T13:22:50;3.07;;;2.83;;
7158;SDS011;63175;52.374;13.132;2024-02-21T13:25:17;4.60;;;2.47;;
7158;SDS011;63175;52.374;13.132;2024-02-21T13:27:46;3.80;;;2.50;;
7158;SDS011;63175;52.374;13.132;2024-02-21T13:30:13;5.03;;;3.00;;
7158;SDS011;63175;52.374;13.132;2024-02-21T13:32:41;3.23;;;2.73;;
7158;SDS011;63175;52.374;13.132;2024-02-21T13:35:10;7.17;;;2.73;;
7158;SDS011;63175;52.374;13.132;2024-02-21T13:37:37;5.90;;;2.97;;
7158;SDS011;63175;52.374;13.132;2024-02-21T13:40:07;6.30;;;2.90;;
7158;SDS011;63175;52.374;13.132;2024-02-21T13:42:35;5.70;;;2.53;;
7158;SDS011;63175;52.374;13.132;2024-02-21T13:45:02;8.33;;;3.30;;
7158;SDS011;63175;52.374;13.132;2024-02-21T13:47:30;4.30;;;3.00;;
7158;SDS011;63175;52.374;13.132;2024-02-21T13:49:57;3.43;;;2.20;;
7158;SDS011;63175;52.374;13.132;2024-02-21T13:52:24;8.87;;;3.10;;
7158;SDS011;63175;52.374;13.132;2024-02-21T13:54:51;5.83;;;2.37;;
7158;SDS011;63175;52.374;13.132;2024-02-21T13:57:20;4.53;;;2.50;;
7158;SDS011;63175;52.374;13.132;2024-02-21T13:59:45;4.63;;;2.50;;
7158;SDS011;63175;52.374;13.132;2024-02-21T14:02:12;11.13;;;3.50;;
7158;SDS011;63175;52.374;13.132;2024-02-21T14:04:39;11.37;;;3.13;;
7158;SDS011;63175;52.374;13.132;2024-02-21T14:07:07;5.87;;;3.37;;
7158;SDS011;63175;52.374;13.132;2024-02-21T14:09:34;6.40;;;3.30;;
7158;SDS011;63175;52.374;13.132;2024-02-21T14:12:01;4.73;;;3.40;;
7158;SDS011;63175;52.374;13.132;2024-02-21T14:14:29;7.57;;;3.50;;
7158;SDS011;63175;52.374;13.132;2024-02-21T14:16:56;5.53;;;2.90;;
7158;SDS011;63175;52.374;13.132;2024-02-21T14:19:23;3.97;;;3.40;;
7158;SDS011;63175;52.374;13.132;2024-02-21T14:21:50;5.53;;;2.80;;
7158;SDS011;63175;52.374;13.132;2024-02-21T14:24:18;5.73;;;2.77;;
7158;SDS011;63175;52.374;13.132;2024-02-21T14:26:44;7.87;;;2.63;;
7158;SDS011;63175;52.374;13.132;2024-02-21T14:29:13;5.40;;;2.70;;
7158;SDS011;63175;52.374;13.132;2024-02-21T14:31:42;3.03;;;2.70;;
7158;SDS011;63175;52.374;13.132;2024-02-21T14:34:08;3.80;;;2.30;;
7158;SDS011;63175;52.374;13.132;2024-02-21T14:36:35;4.63;;;2.57;;
7158;SDS011;63175;52.374;13.132;2024-02-21T14:39:02;5.60;;;2.90;;
7158;SDS011;63175;52.374;13.132;2024-02-21T14:41:30;4.77;;;2.60;;
7158;SDS011;63175;52.374;13.132;2024-02-21T14:43:56;8.33;;;3.03;;